sensor_id;sensor_type;location;lat;lon;timestamp;P1;durP1;ratioP1;P2;durP2;ratioP2
3819;SDS011;1925;51.356;9.530;2023-04-01T00:00:51;8.00;;;2.60;;
3819;SDS011;1925;51.356;9.530;2023-04-01T00:03:18;3.08;;;1.90;;
3819;SDS011;1925;51.356;9.530;2023-04-01T00:05:44;5.53;;;2.20;;
3819;SDS011;1925;51.356;9.530;2023-04-01T00:08:10;4.68;;;3.50;;
3819;SDS011;1925;51.356;9.530;2023-04-01T00:10:36;6.82;;;2.80;;
3819;SDS011;1925;51.356;9.530;2023-04-01T00:13:02;4.77;;;2.00;;
3819;SDS011;1925;51.356;9.530;2023-04-01T00:15:28;4.87;;;2.00;;
3819;SDS011;1925;51.356;9.530;2023-04-01T00:17:54;8.85;;;2.20;;
3819;SDS011;1925;51.356;9.530;2023-04-01T00:20:20;6.07;;;3.07;;
3819;SDS011;1925;51.356;9.530;2023-04-01T00:22:46;4.20;;;2.37;;
3819;SDS011;1925;51.356;9.530;2023-04-01T00:25:12;7.43;;;1.70;;
3819;SDS011;1925;51.356;9.530;2023-04-01T00:27:38;2.77;;;1.73;;
3819;SDS011;1925;51.356;9.530;2023-04-01T00:30:04;4.70;;;1.63;;
3819;SDS011;1925;51.356;9.530;2023-04-01T00:32:31;5.93;;;1.92;;
3819;SDS011;1925;51.356;9.530;2023-04-01T00:34:57;4.57;;;2.88;;
3819;SDS011;1925;51.356;9.530;2023-04-01T00:37:26;1.65;;;1.55;;
3819;SDS011;1925;51.356;9.530;2023-04-01T00:39:52;4.78;;;1.80;;
3819;SDS011;1925;51.356;9.530;2023-04-01T00:42:18;3.30;;;1.30;;
3819;SDS011;1925;51.356;9.530;2023-04-01T00:44:45;3.57;;;1.20;;
3819;SDS011;1925;51.356;9.530;2023-04-01T00:47:13;4.53;;;1.70;;
3819;SDS011;1925;51.356;9.530;2023-04-01T00:49:40;5.40;;;1.90;;
3819;SDS011;1925;51.356;9.530;2023-04-01T00:52:08;6.05;;;1.88;;
3819;SDS011;1925;51.356;9.530;2023-04-01T00:54:36;3.53;;;1.80;;
3819;SDS011;1925;51.356;9.530;2023-04-01T00:57:06;3.35;;;1.67;;
3819;SDS011;1925;51.356;9.530;2023-04-01T00:59:34;8.10;;;2.13;;
3819;SDS011;1925;51.356;9.530;2023-04-01T01:02:03;4.50;;;2.00;;
3819;SDS011;1925;51.356;9.530;2023-04-01T01:04:32;11.30;;;2.80;;
3819;SDS011;1925;51.356;9.530;2023-04-01T01:12:25;7.22;;;1.77;;
3819;SDS011;1925;51.356;9.530;2023-04-01T01:14:59;3.78;;;1.90;;
3819;SDS011;1925;51.356;9.530;2023-04-01T01:25:17;2.10;;;1.23;;
3819;SDS011;1925;51.356;9.530;2023-04-01T01:27:49;4.00;;;1.75;;
3819;SDS011;1925;51.356;9.530;2023-04-01T01:30:30;4.95;;;1.60;;
3819;SDS011;1925;51.356;9.530;2023-04-01T01:33:18;8.10;;;1.67;;
3819;SDS011;1925;51.356;9.530;2023-04-01T01:35:48;8.35;;;1.35;;
3819;SDS011;1925;51.356;9.530;2023-04-01T01:38:16;1.75;;;1.25;;
3819;SDS011;1925;51.356;9.530;2023-04-01T01:40:43;4.43;;;1.73;;
3819;SDS011;1925;51.356;9.530;2023-04-01T01:43:12;8.00;;;1.42;;
3819;SDS011;1925;51.356;9.530;2023-04-01T01:45:44;1.75;;;1.25;;
3819;SDS011;1925;51.356;9.530;2023-04-01T01:48:11;2.83;;;1.92;;
3819;SDS011;1925;51.356;9.530;2023-04-01T01:50:37;7.82;;;1.70;;
3819;SDS011;1925;51.356;9.530;2023-04-01T01:53:06;6.15;;;1.90;;
3819;SDS011;1925;51.356;9.530;2023-04-01T01:55:33;5.82;;;1.80;;
3819;SDS011;1925;51.356;9.530;2023-04-01T01:58:05;5.60;;;1.73;;
3819;SDS011;1925;51.356;9.530;2023-04-01T02:00:33;2.83;;;1.50;;
3819;SDS011;1925;51.356;9.530;2023-04-01T02:02:59;3.30;;;1.33;;
3819;SDS011;1925;51.356;9.530;2023-04-01T02:05:26;5.57;;;1.95;;
3819;SDS011;1925;51.356;9.530;2023-04-01T02:07:59;8.73;;;1.85;;
3819;SDS011;1925;51.356;9.530;2023-04-01T02:10:26;3.17;;;1.77;;
3819;SDS011;1925;51.356;9.530;2023-04-01T02:12:56;4.50;;;1.60;;
3819;SDS011;1925;51.356;9.530;2023-04-01T02:15:24;4.75;;;1.55;;
3819;SDS011;1925;51.356;9.530;2023-04-01T02:17:55;6.00;;;1.35;;
3819;SDS011;1925;51.356;9.530;2023-04-01T02:20:22;4.03;;;1.10;;
3819;SDS011;1925;51.356;9.530;2023-04-01T02:22:53;4.43;;;1.55;;
3819;SDS011;1925;51.356;9.530;2023-04-01T02:25:30;5.07;;;1.70;;
3819;SDS011;1925;51.356;9.530;2023-04-01T02:27:58;3.13;;;1.80;;
3819;SDS011;1925;51.356;9.530;2023-04-01T02:30:26;2.00;;;1.20;;
3819;SDS011;1925;51.356;9.530;2023-04-01T02:32:52;4.07;;;1.58;;
3819;SDS011;1925;51.356;9.530;2023-04-01T02:35:18;3.10;;;1.27;;
3819;SDS011;1925;51.356;9.530;2023-04-01T02:37:45;6.60;;;2.78;;
3819;SDS011;1925;51.356;9.530;2023-04-01T02:40:14;5.55;;;1.50;;
3819;SDS011;1925;51.356;9.530;2023-04-01T02:42:40;5.55;;;1.02;;
3819;SDS011;1925;51.356;9.530;2023-04-01T02:45:06;7.13;;;1.60;;
3819;SDS011;1925;51.356;9.530;2023-04-01T02:47:32;6.38;;;1.77;;
3819;SDS011;1925;51.356;9.530;2023-04-01T02:49:58;6.60;;;1.63;;
3819;SDS011;1925;51.356;9.530;2023-04-01T02:52:25;5.03;;;1.83;;
3819;SDS011;1925;51.356;9.530;2023-04-01T02:54:51;3.88;;;2.03;;
3819;SDS011;1925;51.356;9.530;2023-04-01T02:57:18;3.67;;;1.80;;
3819;SDS011;1925;51.356;9.530;2023-04-01T02:59:44;2.80;;;1.55;;
3819;SDS011;1925;51.356;9.530;2023-04-01T03:02:11;3.50;;;1.15;;
3819;SDS011;1925;51.356;9.530;2023-04-01T03:04:37;4.15;;;1.30;;
3819;SDS011;1925;51.356;9.530;2023-04-01T03:07:02;3.33;;;1.77;;
3819;SDS011;1925;51.356;9.530;2023-04-01T03:09:28;7.53;;;1.90;;
3819;SDS011;1925;51.356;9.530;2023-04-01T03:11:55;5.32;;;2.20;;
3819;SDS011;1925;51.356;9.530;2023-04-01T03:14:21;4.50;;;1.53;;
3819;SDS011;1925;51.356;9.530;2023-04-01T03:16:47;2.20;;;1.67;;
3819;SDS011;1925;51.356;9.530;2023-04-01T03:19:13;3.00;;;1.30;;
3819;SDS011;1925;51.356;9.530;2023-04-01T03:21:39;4.18;;;1.67;;
3819;SDS011;1925;51.356;9.530;2023-04-01T03:24:05;2.97;;;1.70;;
3819;SDS011;1925;51.356;9.530;2023-04-01T03:26:32;4.30;;;1.80;;
3819;SDS011;1925;51.356;9.530;2023-04-01T03:28:58;2.80;;;1.53;;
3819;SDS011;1925;51.356;9.530;2023-04-01T03:31:24;4.78;;;1.30;;
3819;SDS011;1925;51.356;9.530;2023-04-01T03:33:50;2.70;;;1.17;;
3819;SDS011;1925;51.356;9.530;2023-04-01T03:36:16;4.80;;;1.50;;
3819;SDS011;1925;51.356;9.530;2023-04-01T03:38:43;4.10;;;1.42;;
3819;SDS011;1925;51.356;9.530;2023-04-01T03:41:15;1.58;;;1.40;;
3819;SDS011;1925;51.356;9.530;2023-04-01T03:43:42;2.80;;;1.52;;
3819;SDS011;1925;51.356;9.530;2023-04-01T03:46:08;1.75;;;1.15;;
3819;SDS011;1925;51.356;9.530;2023-04-01T03:48:34;6.18;;;1.77;;
3819;SDS011;1925;51.356;9.530;2023-04-01T03:51:00;3.67;;;1.58;;
3819;SDS011;1925;51.356;9.530;2023-04-01T03:53:26;6.43;;;2.42;;
3819;SDS011;1925;51.356;9.530;2023-04-01T03:55:52;5.00;;;1.63;;
3819;SDS011;1925;51.356;9.530;2023-04-01T03:58:18;5.72;;;1.15;;
3819;SDS011;1925;51.356;9.530;2023-04-01T04:00:44;5.03;;;1.80;;
3819;SDS011;1925;51.356;9.530;2023-04-01T04:03:10;2.13;;;1.20;;
3819;SDS011;1925;51.356;9.530;2023-04-01T04:05:36;3.40;;;1.60;;
3819;SDS011;1925;51.356;9.530;2023-04-01T04:08:02;3.50;;;1.20;;
3819;SDS011;1925;51.356;9.530;2023-04-01T04:10:28;3.65;;;1.13;;
3819;SDS011;1925;51.356;9.530;2023-04-01T04:12:54;3.77;;;1.37;;
3819;SDS011;1925;51.356;9.530;2023-04-01T04:15:21;4.83;;;1.70;;
3819;SDS011;1925;51.356;9.530;2023-04-01T04:17:47;2.10;;;1.23;;
3819;SDS011;1925;51.356;9.530;2023-04-01T04:20:13;2.78;;;0.93;;
3819;SDS011;1925;51.356;9.530;2023-04-01T04:22:39;3.28;;;1.00;;
3819;SDS011;1925;51.356;9.530;2023-04-01T04:25:05;3.15;;;1.10;;
3819;SDS011;1925;51.356;9.530;2023-04-01T04:27:31;3.15;;;1.25;;
3819;SDS011;1925;51.356;9.530;2023-04-01T04:29:57;2.27;;;1.80;;
3819;SDS011;1925;51.356;9.530;2023-04-01T04:32:23;2.80;;;1.20;;
3819;SDS011;1925;51.356;9.530;2023-04-01T04:34:49;1.65;;;1.05;;
3819;SDS011;1925;51.356;9.530;2023-04-01T04:37:15;3.83;;;1.23;;
3819;SDS011;1925;51.356;9.530;2023-04-01T04:39:41;1.70;;;1.20;;
3819;SDS011;1925;51.356;9.530;2023-04-01T04:42:07;2.67;;;1.23;;
3819;SDS011;1925;51.356;9.530;2023-04-01T04:44:33;7.13;;;1.97;;
3819;SDS011;1925;51.356;9.530;2023-04-01T04:46:59;2.80;;;1.03;;
3819;SDS011;1925;51.356;9.530;2023-04-01T04:49:25;7.23;;;1.57;;
3819;SDS011;1925;51.356;9.530;2023-04-01T04:51:51;3.40;;;1.70;;
3819;SDS011;1925;51.356;9.530;2023-04-01T04:54:17;2.25;;;1.67;;
3819;SDS011;1925;51.356;9.530;2023-04-01T04:56:43;3.50;;;1.43;;
3819;SDS011;1925;51.356;9.530;2023-04-01T04:59:09;5.03;;;1.50;;
3819;SDS011;1925;51.356;9.530;2023-04-01T05:01:35;4.65;;;2.15;;
3819;SDS011;1925;51.356;9.530;2023-04-01T05:04:01;3.95;;;1.02;;
3819;SDS011;1925;51.356;9.530;2023-04-01T05:06:27;2.97;;;1.17;;
3819;SDS011;1925;51.356;9.530;2023-04-01T05:08:54;3.97;;;1.55;;
3819;SDS011;1925;51.356;9.530;2023-04-01T05:11:20;4.93;;;1.50;;
3819;SDS011;1925;51.356;9.530;2023-04-01T05:13:46;4.70;;;1.40;;
3819;SDS011;1925;51.356;9.530;2023-04-01T05:16:17;2.67;;;1.60;;
3819;SDS011;1925;51.356;9.530;2023-04-01T05:18:43;5.05;;;1.45;;
3819;SDS011;1925;51.356;9.530;2023-04-01T05:21:09;4.68;;;1.73;;
3819;SDS011;1925;51.356;9.530;2023-04-01T05:23:36;5.50;;;1.30;;
3819;SDS011;1925;51.356;9.530;2023-04-01T05:26:03;6.68;;;1.25;;
3819;SDS011;1925;51.356;9.530;2023-04-01T05:28:29;2.38;;;1.20;;
3819;SDS011;1925;51.356;9.530;2023-04-01T05:30:57;2.73;;;1.40;;
3819;SDS011;1925;51.356;9.530;2023-04-01T05:33:23;2.42;;;1.40;;
3819;SDS011;1925;51.356;9.530;2023-04-01T05:35:49;6.85;;;1.80;;
3819;SDS011;1925;51.356;9.530;2023-04-01T05:38:15;3.90;;;1.50;;
3819;SDS011;1925;51.356;9.530;2023-04-01T05:40:41;2.30;;;1.33;;
3819;SDS011;1925;51.356;9.530;2023-04-01T05:43:07;5.43;;;1.50;;
3819;SDS011;1925;51.356;9.530;2023-04-01T05:45:33;8.23;;;2.08;;
3819;SDS011;1925;51.356;9.530;2023-04-01T05:47:59;2.05;;;1.15;;
3819;SDS011;1925;51.356;9.530;2023-04-01T05:50:25;7.03;;;1.53;;
3819;SDS011;1925;51.356;9.530;2023-04-01T05:52:51;3.30;;;1.20;;
3819;SDS011;1925;51.356;9.530;2023-04-01T05:55:18;3.65;;;1.20;;
3819;SDS011;1925;51.356;9.530;2023-04-01T05:57:44;8.43;;;3.10;;
3819;SDS011;1925;51.356;9.530;2023-04-01T06:00:11;5.43;;;2.17;;
3819;SDS011;1925;51.356;9.530;2023-04-01T06:02:37;3.90;;;1.67;;
3819;SDS011;1925;51.356;9.530;2023-04-01T06:05:14;5.07;;;2.75;;
3819;SDS011;1925;51.356;9.530;2023-04-01T06:07:41;5.25;;;1.70;;
3819;SDS011;1925;51.356;9.530;2023-04-01T06:10:12;4.40;;;1.63;;
3819;SDS011;1925;51.356;9.530;2023-04-01T06:12:40;4.72;;;1.85;;
3819;SDS011;1925;51.356;9.530;2023-04-01T06:15:13;4.00;;;2.10;;
3819;SDS011;1925;51.356;9.530;2023-04-01T06:17:43;10.57;;;2.22;;
3819;SDS011;1925;51.356;9.530;2023-04-01T06:31:05;3.92;;;1.50;;
3819;SDS011;1925;51.356;9.530;2023-04-01T06:39:00;4.07;;;0.90;;
3819;SDS011;1925;51.356;9.530;2023-04-01T06:49:07;2.33;;;1.30;;
3819;SDS011;1925;51.356;9.530;2023-04-01T06:51:56;4.20;;;1.58;;
3819;SDS011;1925;51.356;9.530;2023-04-01T06:56:53;1.53;;;0.83;;
3819;SDS011;1925;51.356;9.530;2023-04-01T06:59:22;5.90;;;0.90;;
3819;SDS011;1925;51.356;9.530;2023-04-01T07:01:55;4.55;;;1.13;;
3819;SDS011;1925;51.356;9.530;2023-04-01T07:04:27;1.52;;;0.98;;
3819;SDS011;1925;51.356;9.530;2023-04-01T07:07:05;2.38;;;0.98;;
3819;SDS011;1925;51.356;9.530;2023-04-01T07:09:40;1.95;;;0.90;;
3819;SDS011;1925;51.356;9.530;2023-04-01T07:12:21;4.10;;;1.02;;
3819;SDS011;1925;51.356;9.530;2023-04-01T07:14:50;2.65;;;0.82;;
3819;SDS011;1925;51.356;9.530;2023-04-01T07:17:22;2.92;;;1.17;;
3819;SDS011;1925;51.356;9.530;2023-04-01T07:19:57;3.63;;;0.95;;
3819;SDS011;1925;51.356;9.530;2023-04-01T07:22:41;2.53;;;0.75;;
3819;SDS011;1925;51.356;9.530;2023-04-01T07:27:38;1.30;;;0.93;;
3819;SDS011;1925;51.356;9.530;2023-04-01T07:30:06;4.03;;;1.15;;
3819;SDS011;1925;51.356;9.530;2023-04-01T07:35:23;1.63;;;1.00;;
3819;SDS011;1925;51.356;9.530;2023-04-01T07:40:32;3.50;;;1.10;;
3819;SDS011;1925;51.356;9.530;2023-04-01T07:51:01;3.53;;;1.13;;
3819;SDS011;1925;51.356;9.530;2023-04-01T07:56:15;4.13;;;1.38;;
3819;SDS011;1925;51.356;9.530;2023-04-01T08:01:27;2.35;;;1.00;;
3819;SDS011;1925;51.356;9.530;2023-04-01T08:04:06;3.10;;;1.10;;
3819;SDS011;1925;51.356;9.530;2023-04-01T08:06:37;1.63;;;1.20;;
3819;SDS011;1925;51.356;9.530;2023-04-01T08:09:22;2.38;;;0.80;;
3819;SDS011;1925;51.356;9.530;2023-04-01T08:11:57;7.53;;;1.40;;
3819;SDS011;1925;51.356;9.530;2023-04-01T08:16:58;1.30;;;0.90;;
3819;SDS011;1925;51.356;9.530;2023-04-01T08:19:46;2.05;;;1.35;;
3819;SDS011;1925;51.356;9.530;2023-04-01T08:23:03;3.28;;;1.00;;
3819;SDS011;1925;51.356;9.530;2023-04-01T08:25:04;2.08;;;0.85;;
3819;SDS011;1925;51.356;9.530;2023-04-01T08:27:37;1.88;;;1.00;;
3819;SDS011;1925;51.356;9.530;2023-04-01T08:30:04;1.23;;;0.90;;
3819;SDS011;1925;51.356;9.530;2023-04-01T08:32:35;2.30;;;1.20;;
3819;SDS011;1925;51.356;9.530;2023-04-01T08:37:29;3.17;;;1.00;;
3819;SDS011;1925;51.356;9.530;2023-04-01T08:39:58;1.55;;;1.45;;
3819;SDS011;1925;51.356;9.530;2023-04-01T08:45:02;1.90;;;1.00;;
3819;SDS011;1925;51.356;9.530;2023-04-01T08:50:21;1.42;;;0.85;;
3819;SDS011;1925;51.356;9.530;2023-04-01T08:55:21;2.88;;;1.00;;
3819;SDS011;1925;51.356;9.530;2023-04-01T08:57:58;2.00;;;1.08;;
3819;SDS011;1925;51.356;9.530;2023-04-01T09:00:43;2.65;;;0.80;;
3819;SDS011;1925;51.356;9.530;2023-04-01T09:06:02;1.00;;;0.70;;
3819;SDS011;1925;51.356;9.530;2023-04-01T09:08:36;0.93;;;0.82;;
3819;SDS011;1925;51.356;9.530;2023-04-01T09:11:12;1.25;;;0.82;;
3819;SDS011;1925;51.356;9.530;2023-04-01T09:19:20;2.55;;;0.90;;
3819;SDS011;1925;51.356;9.530;2023-04-01T09:24:40;1.10;;;1.00;;
3819;SDS011;1925;51.356;9.530;2023-04-01T09:35:07;2.75;;;0.80;;
3819;SDS011;1925;51.356;9.530;2023-04-01T09:42:41;0.90;;;0.70;;
3819;SDS011;1925;51.356;9.530;2023-04-01T09:45:09;1.90;;;0.82;;
3819;SDS011;1925;51.356;9.530;2023-04-01T09:58:02;0.95;;;0.82;;
3819;SDS011;1925;51.356;9.530;2023-04-01T10:00:38;1.35;;;1.20;;
3819;SDS011;1925;51.356;9.530;2023-04-01T10:08:43;7.00;;;1.17;;
3819;SDS011;1925;51.356;9.530;2023-04-01T10:20:01;1.77;;;0.93;;
3819;SDS011;1925;51.356;9.530;2023-04-01T10:37:42;1.10;;;0.80;;
3819;SDS011;1925;51.356;9.530;2023-04-01T10:43:03;1.57;;;0.57;;
3819;SDS011;1925;51.356;9.530;2023-04-01T10:45:42;2.40;;;0.73;;
3819;SDS011;1925;51.356;9.530;2023-04-01T10:48:34;1.00;;;0.80;;
3819;SDS011;1925;51.356;9.530;2023-04-01T10:51:06;4.10;;;1.02;;
3819;SDS011;1925;51.356;9.530;2023-04-01T10:53:38;1.52;;;1.02;;
3819;SDS011;1925;51.356;9.530;2023-04-01T11:06:24;1.40;;;0.80;;
3819;SDS011;1925;51.356;9.530;2023-04-01T11:16:42;0.90;;;0.47;;
3819;SDS011;1925;51.356;9.530;2023-04-01T11:21:56;1.00;;;0.60;;
3819;SDS011;1925;51.356;9.530;2023-04-01T11:37:29;1.02;;;0.60;;
3819;SDS011;1925;51.356;9.530;2023-04-01T11:48:25;0.70;;;0.50;;
3819;SDS011;1925;51.356;9.530;2023-04-01T11:55:55;1.70;;;0.73;;
3819;SDS011;1925;51.356;9.530;2023-04-01T11:58:23;1.48;;;0.70;;
3819;SDS011;1925;51.356;9.530;2023-04-01T12:03:35;1.25;;;1.08;;
3819;SDS011;1925;51.356;9.530;2023-04-01T12:06:13;1.52;;;0.90;;
3819;SDS011;1925;51.356;9.530;2023-04-01T12:08:50;1.27;;;0.80;;
3819;SDS011;1925;51.356;9.530;2023-04-01T12:14:06;1.42;;;0.90;;
3819;SDS011;1925;51.356;9.530;2023-04-01T12:21:49;2.40;;;1.00;;
3819;SDS011;1925;51.356;9.530;2023-04-01T12:27:05;1.40;;;1.25;;
3819;SDS011;1925;51.356;9.530;2023-04-01T12:29:40;1.40;;;1.00;;
3819;SDS011;1925;51.356;9.530;2023-04-01T12:35:01;2.10;;;1.20;;
3819;SDS011;1925;51.356;9.530;2023-04-01T12:50:26;1.10;;;1.00;;
3819;SDS011;1925;51.356;9.530;2023-04-01T12:55:39;1.30;;;1.10;;
3819;SDS011;1925;51.356;9.530;2023-04-01T13:06:00;1.02;;;0.75;;
3819;SDS011;1925;51.356;9.530;2023-04-01T13:11:06;1.83;;;0.77;;
3819;SDS011;1925;51.356;9.530;2023-04-01T13:16:21;0.82;;;0.82;;
3819;SDS011;1925;51.356;9.530;2023-04-01T13:21:20;1.00;;;0.70;;
3819;SDS011;1925;51.356;9.530;2023-04-01T13:26:27;0.80;;;0.68;;
3819;SDS011;1925;51.356;9.530;2023-04-01T13:29:06;0.90;;;0.70;;
3819;SDS011;1925;51.356;9.530;2023-04-01T13:39:41;1.40;;;1.05;;
3819;SDS011;1925;51.356;9.530;2023-04-01T13:44:48;1.60;;;0.80;;
3819;SDS011;1925;51.356;9.530;2023-04-01T14:03:53;5.10;;;1.20;;
3819;SDS011;1925;51.356;9.530;2023-04-01T14:09:05;4.45;;;1.67;;
3819;SDS011;1925;51.356;9.530;2023-04-01T14:21:38;1.17;;;0.80;;
3819;SDS011;1925;51.356;9.530;2023-04-01T14:32:02;1.52;;;1.13;;
3819;SDS011;1925;51.356;9.530;2023-04-01T14:37:25;0.90;;;0.70;;
3819;SDS011;1925;51.356;9.530;2023-04-01T14:45:26;1.75;;;0.80;;
3819;SDS011;1925;51.356;9.530;2023-04-01T14:48:05;1.70;;;0.70;;
3819;SDS011;1925;51.356;9.530;2023-04-01T14:50:41;2.70;;;0.85;;
3819;SDS011;1925;51.356;9.530;2023-04-01T14:56:00;1.88;;;0.77;;
3819;SDS011;1925;51.356;9.530;2023-04-01T15:01:32;0.80;;;0.60;;
3819;SDS011;1925;51.356;9.530;2023-04-01T15:04:12;1.67;;;1.10;;
3819;SDS011;1925;51.356;9.530;2023-04-01T15:11:41;1.70;;;1.05;;
3819;SDS011;1925;51.356;9.530;2023-04-01T15:14:13;1.63;;;0.80;;
3819;SDS011;1925;51.356;9.530;2023-04-01T15:19:21;1.70;;;1.55;;
3819;SDS011;1925;51.356;9.530;2023-04-01T15:22:08;1.40;;;1.30;;
3819;SDS011;1925;51.356;9.530;2023-04-01T15:30:14;4.03;;;2.38;;
3819;SDS011;1925;51.356;9.530;2023-04-01T15:32:45;2.15;;;1.58;;
3819;SDS011;1925;51.356;9.530;2023-04-01T15:38:05;2.45;;;1.58;;
3819;SDS011;1925;51.356;9.530;2023-04-01T15:40:36;1.90;;;1.45;;
3819;SDS011;1925;51.356;9.530;2023-04-01T15:48:40;1.00;;;0.80;;
3819;SDS011;1925;51.356;9.530;2023-04-01T15:51:19;1.90;;;0.93;;
3819;SDS011;1925;51.356;9.530;2023-04-01T16:19:45;5.65;;;4.90;;
3819;SDS011;1925;51.356;9.530;2023-04-01T16:27:49;3.23;;;2.90;;
3819;SDS011;1925;51.356;9.530;2023-04-01T16:32:51;3.45;;;2.78;;
3819;SDS011;1925;51.356;9.530;2023-04-01T16:35:25;5.05;;;3.17;;
3819;SDS011;1925;51.356;9.530;2023-04-01T16:45:45;4.45;;;2.55;;
3819;SDS011;1925;51.356;9.530;2023-04-01T16:48:19;1.98;;;1.65;;
3819;SDS011;1925;51.356;9.530;2023-04-01T16:55:46;1.83;;;1.53;;
3819;SDS011;1925;51.356;9.530;2023-04-01T16:58:14;1.52;;;1.20;;
3819;SDS011;1925;51.356;9.530;2023-04-01T17:00:47;1.50;;;1.30;;
3819;SDS011;1925;51.356;9.530;2023-04-01T17:03:25;1.58;;;1.15;;
3819;SDS011;1925;51.356;9.530;2023-04-01T17:05:55;1.27;;;1.17;;
3819;SDS011;1925;51.356;9.530;2023-04-01T17:08:46;3.10;;;1.80;;
3819;SDS011;1925;51.356;9.530;2023-04-01T17:11:14;1.50;;;1.40;;
3819;SDS011;1925;51.356;9.530;2023-04-01T17:13:50;2.30;;;1.73;;
3819;SDS011;1925;51.356;9.530;2023-04-01T17:21:37;1.87;;;1.77;;
3819;SDS011;1925;51.356;9.530;2023-04-01T17:24:11;1.75;;;1.65;;
3819;SDS011;1925;51.356;9.530;2023-04-01T17:26:46;2.90;;;2.55;;
3819;SDS011;1925;51.356;9.530;2023-04-01T17:29:27;3.42;;;2.95;;
3819;SDS011;1925;51.356;9.530;2023-04-01T17:45:01;2.28;;;1.35;;
3819;SDS011;1925;51.356;9.530;2023-04-01T17:57:46;1.25;;;1.10;;
3819;SDS011;1925;51.356;9.530;2023-04-01T18:03:06;2.92;;;2.25;;
3819;SDS011;1925;51.356;9.530;2023-04-01T18:05:44;21.20;;;14.63;;
3819;SDS011;1925;51.356;9.530;2023-04-01T18:08:17;45.22;;;24.27;;
3819;SDS011;1925;51.356;9.530;2023-04-01T18:10:51;43.25;;;25.92;;
3819;SDS011;1925;51.356;9.530;2023-04-01T18:13:28;27.17;;;15.57;;
3819;SDS011;1925;51.356;9.530;2023-04-01T18:16:07;11.77;;;7.95;;
3819;SDS011;1925;51.356;9.530;2023-04-01T18:21:49;2.85;;;2.65;;
3819;SDS011;1925;51.356;9.530;2023-04-01T18:26:48;3.03;;;1.55;;
3819;SDS011;1925;51.356;9.530;2023-04-01T18:29:26;1.92;;;1.25;;
3819;SDS011;1925;51.356;9.530;2023-04-01T18:31:55;1.23;;;1.13;;
3819;SDS011;1925;51.356;9.530;2023-04-01T18:37:31;2.83;;;1.83;;
3819;SDS011;1925;51.356;9.530;2023-04-01T18:42:44;2.40;;;1.80;;
3819;SDS011;1925;51.356;9.530;2023-04-01T18:45:28;2.38;;;2.17;;
3819;SDS011;1925;51.356;9.530;2023-04-01T18:48:00;4.07;;;3.17;;
3819;SDS011;1925;51.356;9.530;2023-04-01T18:50:51;3.13;;;2.88;;
3819;SDS011;1925;51.356;9.530;2023-04-01T18:59:28;4.25;;;2.10;;
3819;SDS011;1925;51.356;9.530;2023-04-01T19:01:39;2.58;;;2.38;;
3819;SDS011;1925;51.356;9.530;2023-04-01T19:06:35;3.50;;;1.85;;
3819;SDS011;1925;51.356;9.530;2023-04-01T19:09:26;2.63;;;1.70;;
3819;SDS011;1925;51.356;9.530;2023-04-01T19:12:05;6.25;;;3.03;;
3819;SDS011;1925;51.356;9.530;2023-04-01T19:14:39;6.95;;;5.00;;
3819;SDS011;1925;51.356;9.530;2023-04-01T19:17:10;5.95;;;4.25;;
3819;SDS011;1925;51.356;9.530;2023-04-01T19:22:30;3.10;;;2.58;;
3819;SDS011;1925;51.356;9.530;2023-04-01T19:27:31;1.38;;;1.10;;
3819;SDS011;1925;51.356;9.530;2023-04-01T19:37:39;2.88;;;1.98;;
3819;SDS011;1925;51.356;9.530;2023-04-01T19:40:15;2.65;;;2.45;;
3819;SDS011;1925;51.356;9.530;2023-04-01T19:42:47;2.60;;;2.20;;
3819;SDS011;1925;51.356;9.530;2023-04-01T19:45:34;2.58;;;1.88;;
3819;SDS011;1925;51.356;9.530;2023-04-01T19:50:51;1.90;;;1.60;;
3819;SDS011;1925;51.356;9.530;2023-04-01T19:53:34;6.35;;;1.90;;
3819;SDS011;1925;51.356;9.530;2023-04-01T19:56:07;2.85;;;2.65;;
3819;SDS011;1925;51.356;9.530;2023-04-01T19:58:45;1.70;;;1.60;;
3819;SDS011;1925;51.356;9.530;2023-04-01T20:01:25;6.00;;;2.28;;
3819;SDS011;1925;51.356;9.530;2023-04-01T20:03:54;1.95;;;1.38;;
3819;SDS011;1925;51.356;9.530;2023-04-01T20:06:32;4.38;;;1.38;;
3819;SDS011;1925;51.356;9.530;2023-04-01T20:11:58;1.85;;;1.63;;
3819;SDS011;1925;51.356;9.530;2023-04-01T20:17:02;3.35;;;3.05;;
3819;SDS011;1925;51.356;9.530;2023-04-01T20:19:37;6.28;;;3.75;;
3819;SDS011;1925;51.356;9.530;2023-04-01T20:22:08;3.72;;;3.33;;
3819;SDS011;1925;51.356;9.530;2023-04-01T20:24:43;3.95;;;2.90;;
3819;SDS011;1925;51.356;9.530;2023-04-01T20:29:41;10.18;;;9.05;;
3819;SDS011;1925;51.356;9.530;2023-04-01T20:45:27;2.20;;;1.97;;
3819;SDS011;1925;51.356;9.530;2023-04-01T20:48:21;1.88;;;1.77;;
3819;SDS011;1925;51.356;9.530;2023-04-01T20:53:28;1.48;;;1.38;;
3819;SDS011;1925;51.356;9.530;2023-04-01T21:01:28;1.70;;;1.60;;
3819;SDS011;1925;51.356;9.530;2023-04-01T21:09:06;2.20;;;1.30;;
3819;SDS011;1925;51.356;9.530;2023-04-01T21:14:07;1.40;;;1.15;;
3819;SDS011;1925;51.356;9.530;2023-04-01T21:16:39;1.20;;;0.90;;
3819;SDS011;1925;51.356;9.530;2023-04-01T21:26:53;1.25;;;1.15;;
3819;SDS011;1925;51.356;9.530;2023-04-01T21:32:04;2.75;;;1.08;;
3819;SDS011;1925;51.356;9.530;2023-04-01T21:39:50;0.80;;;0.75;;
3819;SDS011;1925;51.356;9.530;2023-04-01T21:47:21;0.97;;;0.87;;
3819;SDS011;1925;51.356;9.530;2023-04-01T21:57:54;1.50;;;1.40;;
3819;SDS011;1925;51.356;9.530;2023-04-01T22:00:48;2.08;;;1.88;;
3819;SDS011;1925;51.356;9.530;2023-04-01T22:03:22;1.48;;;1.38;;
3819;SDS011;1925;51.356;9.530;2023-04-01T22:06:00;1.08;;;0.98;;
3819;SDS011;1925;51.356;9.530;2023-04-01T22:13:53;1.20;;;1.10;;
3819;SDS011;1925;51.356;9.530;2023-04-01T22:16:23;0.98;;;0.85;;
3819;SDS011;1925;51.356;9.530;2023-04-01T22:21:40;1.20;;;1.10;;
3819;SDS011;1925;51.356;9.530;2023-04-01T22:26:58;1.30;;;1.05;;
3819;SDS011;1925;51.356;9.530;2023-04-01T22:29:28;1.70;;;1.60;;
3819;SDS011;1925;51.356;9.530;2023-04-01T22:31:59;1.23;;;1.13;;
3819;SDS011;1925;51.356;9.530;2023-04-01T22:39:37;1.40;;;1.10;;
3819;SDS011;1925;51.356;9.530;2023-04-01T22:42:20;1.20;;;1.10;;
3819;SDS011;1925;51.356;9.530;2023-04-01T22:47:40;1.30;;;1.13;;
3819;SDS011;1925;51.356;9.530;2023-04-01T22:50:18;1.33;;;1.05;;
3819;SDS011;1925;51.356;9.530;2023-04-01T22:52:46;1.17;;;1.00;;
3819;SDS011;1925;51.356;9.530;2023-04-01T22:57:40;2.15;;;1.15;;
3819;SDS011;1925;51.356;9.530;2023-04-01T23:02:40;2.85;;;1.10;;
3819;SDS011;1925;51.356;9.530;2023-04-01T23:05:09;1.20;;;1.10;;
3819;SDS011;1925;51.356;9.530;2023-04-01T23:10:21;0.98;;;0.82;;
3819;SDS011;1925;51.356;9.530;2023-04-01T23:12:47;3.95;;;1.27;;
3819;SDS011;1925;51.356;9.530;2023-04-01T23:15:15;1.13;;;0.63;;
3819;SDS011;1925;51.356;9.530;2023-04-01T23:17:57;1.20;;;0.90;;
3819;SDS011;1925;51.356;9.530;2023-04-01T23:20:29;1.23;;;0.85;;
3819;SDS011;1925;51.356;9.530;2023-04-01T23:38:16;0.80;;;0.70;;
3819;SDS011;1925;51.356;9.530;2023-04-01T23:40:42;0.90;;;0.70;;
3819;SDS011;1925;51.356;9.530;2023-04-01T23:43:17;0.80;;;0.60;;
3819;SDS011;1925;51.356;9.530;2023-04-01T23:45:47;0.90;;;0.70;;
3819;SDS011;1925;51.356;9.530;2023-04-01T23:48:13;0.90;;;0.65;;
3819;SDS011;1925;51.356;9.530;2023-04-01T23:50:41;0.90;;;0.60;;
3819;SDS011;1925;51.356;9.530;2023-04-01T23:53:13;1.17;;;0.90;;
3819;SDS011;1925;51.356;9.530;2023-04-01T23:55:41;1.17;;;0.73;;
